sensor_id;sensor_type;location;lat;lon;timestamp;temperature;humidity
63047;DHT22;62025;39.238;9.126;2023-10-08T00:00:49;23.40;71.10
63047;DHT22;62025;39.238;9.126;2023-10-08T00:03:16;23.50;70.80
63047;DHT22;62025;39.238;9.126;2023-10-08T00:05:46;23.50;70.80
63047;DHT22;62025;39.238;9.126;2023-10-08T00:08:13;23.40;70.80
63047;DHT22;62025;39.238;9.126;2023-10-08T00:10:42;23.40;70.80
63047;DHT22;62025;39.238;9.126;2023-10-08T00:13:16;23.40;70.80
63047;DHT22;62025;39.238;9.126;2023-10-08T00:15:43;23.40;71.00
63047;DHT22;62025;39.238;9.126;2023-10-08T00:18:20;23.40;70.90
63047;DHT22;62025;39.238;9.126;2023-10-08T00:20:48;23.40;71.00
63047;DHT22;62025;39.238;9.126;2023-10-08T00:23:24;23.40;71.10
63047;DHT22;62025;39.238;9.126;2023-10-08T00:25:53;23.40;71.10
63047;DHT22;62025;39.238;9.126;2023-10-08T00:28:21;23.40;71.20
63047;DHT22;62025;39.238;9.126;2023-10-08T00:30:47;23.30;71.30
63047;DHT22;62025;39.238;9.126;2023-10-08T00:33:16;23.30;71.10
63047;DHT22;62025;39.238;9.126;2023-10-08T00:35:42;23.20;71.10
63047;DHT22;62025;39.238;9.126;2023-10-08T00:38:09;23.20;71.10
63047;DHT22;62025;39.238;9.126;2023-10-08T00:40:41;23.20;71.00
63047;DHT22;62025;39.238;9.126;2023-10-08T00:46:04;23.20;70.90
63047;DHT22;62025;39.238;9.126;2023-10-08T00:48:45;23.20;71.00
63047;DHT22;62025;39.238;9.126;2023-10-08T00:51:13;23.10;71.10
63047;DHT22;62025;39.238;9.126;2023-10-08T00:54:00;23.10;71.20
63047;DHT22;62025;39.238;9.126;2023-10-08T00:56:36;23.00;71.30
63047;DHT22;62025;39.238;9.126;2023-10-08T00:59:20;23.10;71.10
63047;DHT22;62025;39.238;9.126;2023-10-08T01:01:48;23.00;71.20
63047;DHT22;62025;39.238;9.126;2023-10-08T01:04:22;23.00;71.10
63047;DHT22;62025;39.238;9.126;2023-10-08T01:06:51;23.00;71.00
63047;DHT22;62025;39.238;9.126;2023-10-08T01:09:25;23.00;70.80
63047;DHT22;62025;39.238;9.126;2023-10-08T01:14:55;23.00;70.70
63047;DHT22;62025;39.238;9.126;2023-10-08T01:17:23;22.90;70.80
63047;DHT22;62025;39.238;9.126;2023-10-08T01:19:51;22.90;70.80
63047;DHT22;62025;39.238;9.126;2023-10-08T01:22:22;22.90;70.70
63047;DHT22;62025;39.238;9.126;2023-10-08T01:24:49;22.90;70.70
63047;DHT22;62025;39.238;9.126;2023-10-08T01:27:15;22.80;70.80
63047;DHT22;62025;39.238;9.126;2023-10-08T01:29:50;22.80;70.80
63047;DHT22;62025;39.238;9.126;2023-10-08T01:32:21;22.90;70.70
63047;DHT22;62025;39.238;9.126;2023-10-08T01:34:48;22.80;70.80
63047;DHT22;62025;39.238;9.126;2023-10-08T01:37:18;22.80;70.80
63047;DHT22;62025;39.238;9.126;2023-10-08T01:39:45;22.80;70.80
63047;DHT22;62025;39.238;9.126;2023-10-08T01:42:12;22.80;70.70
63047;DHT22;62025;39.238;9.126;2023-10-08T01:44:49;22.70;70.90
63047;DHT22;62025;39.238;9.126;2023-10-08T01:47:21;22.70;70.80
63047;DHT22;62025;39.238;9.126;2023-10-08T01:49:51;22.70;70.70
63047;DHT22;62025;39.238;9.126;2023-10-08T01:52:23;22.60;70.90
63047;DHT22;62025;39.238;9.126;2023-10-08T01:54:50;22.60;71.10
63047;DHT22;62025;39.238;9.126;2023-10-08T01:57:19;22.60;71.00
63047;DHT22;62025;39.238;9.126;2023-10-08T01:59:45;22.50;71.30
63047;DHT22;62025;39.238;9.126;2023-10-08T02:02:11;22.50;71.10
63047;DHT22;62025;39.238;9.126;2023-10-08T02:04:40;22.50;71.30
63047;DHT22;62025;39.238;9.126;2023-10-08T02:07:07;22.60;71.20
63047;DHT22;62025;39.238;9.126;2023-10-08T02:09:40;22.60;71.30
63047;DHT22;62025;39.238;9.126;2023-10-08T02:12:06;22.50;71.30
63047;DHT22;62025;39.238;9.126;2023-10-08T02:14:32;22.50;71.20
63047;DHT22;62025;39.238;9.126;2023-10-08T02:17:02;22.60;71.10
63047;DHT22;62025;39.238;9.126;2023-10-08T02:19:32;22.50;71.00
63047;DHT22;62025;39.238;9.126;2023-10-08T02:22:00;22.50;71.10
63047;DHT22;62025;39.238;9.126;2023-10-08T02:24:26;22.50;71.10
63047;DHT22;62025;39.238;9.126;2023-10-08T02:26:52;22.40;71.20
63047;DHT22;62025;39.238;9.126;2023-10-08T02:29:26;22.40;71.20
63047;DHT22;62025;39.238;9.126;2023-10-08T02:31:54;22.30;71.50
63047;DHT22;62025;39.238;9.126;2023-10-08T02:34:20;22.30;71.40
63047;DHT22;62025;39.238;9.126;2023-10-08T02:36:46;22.30;71.50
63047;DHT22;62025;39.238;9.126;2023-10-08T02:39:14;22.30;71.40
63047;DHT22;62025;39.238;9.126;2023-10-08T02:41:44;22.30;71.30
63047;DHT22;62025;39.238;9.126;2023-10-08T02:44:15;22.30;71.20
63047;DHT22;62025;39.238;9.126;2023-10-08T02:46:47;22.30;71.10
63047;DHT22;62025;39.238;9.126;2023-10-08T02:49:14;22.20;71.50
63047;DHT22;62025;39.238;9.126;2023-10-08T02:51:51;22.20;71.30
63047;DHT22;62025;39.238;9.126;2023-10-08T02:54:20;22.10;71.40
63047;DHT22;62025;39.238;9.126;2023-10-08T02:56:52;22.10;71.50
63047;DHT22;62025;39.238;9.126;2023-10-08T02:59:29;22.20;71.40
63047;DHT22;62025;39.238;9.126;2023-10-08T03:02:13;22.10;71.40
63047;DHT22;62025;39.238;9.126;2023-10-08T03:04:46;22.20;71.30
63047;DHT22;62025;39.238;9.126;2023-10-08T03:07:18;22.20;71.40
63047;DHT22;62025;39.238;9.126;2023-10-08T03:09:51;22.10;71.40
63047;DHT22;62025;39.238;9.126;2023-10-08T03:12:29;22.20;71.40
63047;DHT22;62025;39.238;9.126;2023-10-08T03:14:58;22.10;71.30
63047;DHT22;62025;39.238;9.126;2023-10-08T03:17:38;22.10;71.30
63047;DHT22;62025;39.238;9.126;2023-10-08T03:20:05;22.10;71.10
63047;DHT22;62025;39.238;9.126;2023-10-08T03:22:51;22.00;71.20
63047;DHT22;62025;39.238;9.126;2023-10-08T03:25:17;22.00;71.30
63047;DHT22;62025;39.238;9.126;2023-10-08T03:27:44;22.00;71.20
63047;DHT22;62025;39.238;9.126;2023-10-08T03:30:10;21.90;71.30
63047;DHT22;62025;39.238;9.126;2023-10-08T03:32:41;22.00;71.20
63047;DHT22;62025;39.238;9.126;2023-10-08T03:35:11;22.00;71.10
63047;DHT22;62025;39.238;9.126;2023-10-08T03:37:38;22.00;71.10
63047;DHT22;62025;39.238;9.126;2023-10-08T03:40:11;21.90;71.20
63047;DHT22;62025;39.238;9.126;2023-10-08T03:43:08;21.90;71.30
63047;DHT22;62025;39.238;9.126;2023-10-08T03:45:49;21.90;71.40
63047;DHT22;62025;39.238;9.126;2023-10-08T03:48:25;21.90;71.50
63047;DHT22;62025;39.238;9.126;2023-10-08T03:50:51;21.90;71.60
63047;DHT22;62025;39.238;9.126;2023-10-08T03:53:25;21.90;71.40
63047;DHT22;62025;39.238;9.126;2023-10-08T03:55:53;21.90;71.60
63047;DHT22;62025;39.238;9.126;2023-10-08T03:58:21;21.90;71.80
63047;DHT22;62025;39.238;9.126;2023-10-08T04:01:10;21.90;71.90
63047;DHT22;62025;39.238;9.126;2023-10-08T04:03:43;21.90;71.90
63047;DHT22;62025;39.238;9.126;2023-10-08T04:06:21;21.80;72.10
63047;DHT22;62025;39.238;9.126;2023-10-08T04:09:04;21.90;72.00
63047;DHT22;62025;39.238;9.126;2023-10-08T04:11:34;21.90;71.90
63047;DHT22;62025;39.238;9.126;2023-10-08T04:14:24;21.80;71.90
63047;DHT22;62025;39.238;9.126;2023-10-08T04:16:51;21.80;71.90
63047;DHT22;62025;39.238;9.126;2023-10-08T04:19:18;21.80;71.80
63047;DHT22;62025;39.238;9.126;2023-10-08T04:21:47;21.70;71.90
63047;DHT22;62025;39.238;9.126;2023-10-08T04:24:23;21.70;72.00
63047;DHT22;62025;39.238;9.126;2023-10-08T04:26:56;21.80;72.20
63047;DHT22;62025;39.238;9.126;2023-10-08T04:29:23;21.80;72.40
63047;DHT22;62025;39.238;9.126;2023-10-08T04:31:50;21.70;72.70
63047;DHT22;62025;39.238;9.126;2023-10-08T04:34:28;21.80;72.70
63047;DHT22;62025;39.238;9.126;2023-10-08T04:36:55;21.70;72.80
63047;DHT22;62025;39.238;9.126;2023-10-08T04:39:29;21.80;72.70
63047;DHT22;62025;39.238;9.126;2023-10-08T04:42:02;21.80;72.50
63047;DHT22;62025;39.238;9.126;2023-10-08T04:44:35;21.80;72.60
63047;DHT22;62025;39.238;9.126;2023-10-08T04:47:04;21.70;72.70
63047;DHT22;62025;39.238;9.126;2023-10-08T04:49:32;21.80;72.90
63047;DHT22;62025;39.238;9.126;2023-10-08T04:52:07;21.60;73.30
63047;DHT22;62025;39.238;9.126;2023-10-08T04:54:44;21.60;73.40
63047;DHT22;62025;39.238;9.126;2023-10-08T04:57:18;21.70;73.40
63047;DHT22;62025;39.238;9.126;2023-10-08T04:59:48;21.70;73.60
63047;DHT22;62025;39.238;9.126;2023-10-08T05:02:16;21.70;73.60
63047;DHT22;62025;39.238;9.126;2023-10-08T05:04:50;21.70;73.60
63047;DHT22;62025;39.238;9.126;2023-10-08T05:07:17;21.70;73.90
63047;DHT22;62025;39.238;9.126;2023-10-08T05:09:52;21.60;74.10
63047;DHT22;62025;39.238;9.126;2023-10-08T05:12:37;21.60;74.20
63047;DHT22;62025;39.238;9.126;2023-10-08T05:15:04;21.50;74.00
63047;DHT22;62025;39.238;9.126;2023-10-08T05:17:44;21.50;73.70
63047;DHT22;62025;39.238;9.126;2023-10-08T05:20:17;21.60;73.40
63047;DHT22;62025;39.238;9.126;2023-10-08T05:23:09;21.60;73.20
63047;DHT22;62025;39.238;9.126;2023-10-08T05:25:56;21.60;73.20
63047;DHT22;62025;39.238;9.126;2023-10-08T05:28:36;21.40;73.30
63047;DHT22;62025;39.238;9.126;2023-10-08T05:31:21;21.50;73.10
63047;DHT22;62025;39.238;9.126;2023-10-08T05:34:02;21.50;72.80
63047;DHT22;62025;39.238;9.126;2023-10-08T05:36:28;21.50;72.60
63047;DHT22;62025;39.238;9.126;2023-10-08T05:39:02;21.50;72.50
63047;DHT22;62025;39.238;9.126;2023-10-08T05:41:46;21.40;72.20
63047;DHT22;62025;39.238;9.126;2023-10-08T05:44:18;21.50;72.10
63047;DHT22;62025;39.238;9.126;2023-10-08T05:46:44;21.40;72.40
63047;DHT22;62025;39.238;9.126;2023-10-08T05:49:19;21.40;72.60
63047;DHT22;62025;39.238;9.126;2023-10-08T05:51:58;21.50;72.60
63047;DHT22;62025;39.238;9.126;2023-10-08T05:54:31;21.60;72.60
63047;DHT22;62025;39.238;9.126;2023-10-08T05:57:08;21.60;72.60
63047;DHT22;62025;39.238;9.126;2023-10-08T05:59:39;21.60;72.70
63047;DHT22;62025;39.238;9.126;2023-10-08T06:02:39;21.60;72.90
63047;DHT22;62025;39.238;9.126;2023-10-08T06:05:10;21.60;72.90
63047;DHT22;62025;39.238;9.126;2023-10-08T06:07:46;21.80;72.70
63047;DHT22;62025;39.238;9.126;2023-10-08T06:10:31;21.90;72.30
63047;DHT22;62025;39.238;9.126;2023-10-08T06:13:10;22.00;71.90
63047;DHT22;62025;39.238;9.126;2023-10-08T06:15:56;22.10;71.50
63047;DHT22;62025;39.238;9.126;2023-10-08T06:18:27;22.30;71.10
63047;DHT22;62025;39.238;9.126;2023-10-08T06:20:58;22.40;70.70
63047;DHT22;62025;39.238;9.126;2023-10-08T06:23:27;22.50;70.30
63047;DHT22;62025;39.238;9.126;2023-10-08T06:25:55;22.60;70.00
63047;DHT22;62025;39.238;9.126;2023-10-08T06:28:41;22.60;69.70
63047;DHT22;62025;39.238;9.126;2023-10-08T06:31:09;22.80;69.40
63047;DHT22;62025;39.238;9.126;2023-10-08T06:33:43;22.90;69.00
63047;DHT22;62025;39.238;9.126;2023-10-08T06:36:10;22.90;68.70
63047;DHT22;62025;39.238;9.126;2023-10-08T06:38:38;23.10;68.50
63047;DHT22;62025;39.238;9.126;2023-10-08T06:41:14;23.10;68.20
63047;DHT22;62025;39.238;9.126;2023-10-08T06:43:45;23.30;68.00
63047;DHT22;62025;39.238;9.126;2023-10-08T06:46:18;23.40;67.80
63047;DHT22;62025;39.238;9.126;2023-10-08T06:48:47;23.50;67.60
63047;DHT22;62025;39.238;9.126;2023-10-08T06:51:15;23.60;67.50
63047;DHT22;62025;39.238;9.126;2023-10-08T06:53:46;23.70;67.30
63047;DHT22;62025;39.238;9.126;2023-10-08T06:56:13;23.90;67.00
63047;DHT22;62025;39.238;9.126;2023-10-08T06:58:41;23.90;66.90
63047;DHT22;62025;39.238;9.126;2023-10-08T07:01:20;24.00;66.60
63047;DHT22;62025;39.238;9.126;2023-10-08T07:03:55;24.20;66.30
63047;DHT22;62025;39.238;9.126;2023-10-08T07:06:29;24.40;66.00
63047;DHT22;62025;39.238;9.126;2023-10-08T07:09:03;24.40;65.60
63047;DHT22;62025;39.238;9.126;2023-10-08T07:11:35;24.60;65.20
63047;DHT22;62025;39.238;9.126;2023-10-08T07:14:03;24.80;64.90
63047;DHT22;62025;39.238;9.126;2023-10-08T07:16:30;24.90;64.40
63047;DHT22;62025;39.238;9.126;2023-10-08T07:18:57;25.00;64.10
63047;DHT22;62025;39.238;9.126;2023-10-08T07:21:42;25.10;63.60
63047;DHT22;62025;39.238;9.126;2023-10-08T07:24:14;25.30;63.30
63047;DHT22;62025;39.238;9.126;2023-10-08T07:26:43;25.40;63.00
63047;DHT22;62025;39.238;9.126;2023-10-08T07:29:14;25.50;62.60
63047;DHT22;62025;39.238;9.126;2023-10-08T07:31:43;25.60;62.20
63047;DHT22;62025;39.238;9.126;2023-10-08T07:34:18;25.80;61.80
63047;DHT22;62025;39.238;9.126;2023-10-08T07:36:53;25.90;61.50
63047;DHT22;62025;39.238;9.126;2023-10-08T07:39:21;26.00;61.00
63047;DHT22;62025;39.238;9.126;2023-10-08T07:41:50;26.10;60.60
63047;DHT22;62025;39.238;9.126;2023-10-08T07:44:17;26.20;60.30
63047;DHT22;62025;39.238;9.126;2023-10-08T07:46:51;26.30;59.80
63047;DHT22;62025;39.238;9.126;2023-10-08T07:49:19;26.40;59.30
63047;DHT22;62025;39.238;9.126;2023-10-08T07:51:45;26.60;58.60
63047;DHT22;62025;39.238;9.126;2023-10-08T07:54:18;26.70;58.30
63047;DHT22;62025;39.238;9.126;2023-10-08T07:56:46;26.80;57.80
63047;DHT22;62025;39.238;9.126;2023-10-08T07:59:13;26.90;57.50
63047;DHT22;62025;39.238;9.126;2023-10-08T08:01:45;26.90;57.00
63047;DHT22;62025;39.238;9.126;2023-10-08T08:04:12;27.10;56.80
63047;DHT22;62025;39.238;9.126;2023-10-08T08:06:51;27.20;56.40
63047;DHT22;62025;39.238;9.126;2023-10-08T08:09:17;27.10;56.00
63047;DHT22;62025;39.238;9.126;2023-10-08T08:11:46;27.40;55.60
63047;DHT22;62025;39.238;9.126;2023-10-08T08:14:14;27.50;54.60
63047;DHT22;62025;39.238;9.126;2023-10-08T08:16:45;27.50;54.50
63047;DHT22;62025;39.238;9.126;2023-10-08T08:19:17;27.70;53.80
63047;DHT22;62025;39.238;9.126;2023-10-08T08:21:52;27.70;53.20
63047;DHT22;62025;39.238;9.126;2023-10-08T08:24:20;27.90;53.20
63047;DHT22;62025;39.238;9.126;2023-10-08T08:27:04;28.00;53.20
63047;DHT22;62025;39.238;9.126;2023-10-08T08:29:53;28.10;52.60
63047;DHT22;62025;39.238;9.126;2023-10-08T08:32:24;28.20;51.40
63047;DHT22;62025;39.238;9.126;2023-10-08T08:34:50;28.20;51.60
63047;DHT22;62025;39.238;9.126;2023-10-08T08:37:18;28.40;51.20
63047;DHT22;62025;39.238;9.126;2023-10-08T08:39:45;28.40;51.00
63047;DHT22;62025;39.238;9.126;2023-10-08T08:42:11;28.40;50.80
63047;DHT22;62025;39.238;9.126;2023-10-08T08:44:38;28.50;50.70
63047;DHT22;62025;39.238;9.126;2023-10-08T08:47:17;28.70;50.40
63047;DHT22;62025;39.238;9.126;2023-10-08T08:49:47;28.80;50.10
63047;DHT22;62025;39.238;9.126;2023-10-08T08:52:14;28.80;49.90
63047;DHT22;62025;39.238;9.126;2023-10-08T08:54:41;28.80;49.80
63047;DHT22;62025;39.238;9.126;2023-10-08T08:57:11;28.80;49.00
63047;DHT22;62025;39.238;9.126;2023-10-08T08:59:58;28.70;48.30
63047;DHT22;62025;39.238;9.126;2023-10-08T09:02:24;28.60;49.20
63047;DHT22;62025;39.238;9.126;2023-10-08T09:04:50;28.60;48.60
63047;DHT22;62025;39.238;9.126;2023-10-08T09:07:20;28.50;48.90
63047;DHT22;62025;39.238;9.126;2023-10-08T09:09:47;28.70;48.70
63047;DHT22;62025;39.238;9.126;2023-10-08T09:12:16;28.80;48.60
63047;DHT22;62025;39.238;9.126;2023-10-08T09:14:43;28.90;48.60
63047;DHT22;62025;39.238;9.126;2023-10-08T09:17:10;29.10;47.90
63047;DHT22;62025;39.238;9.126;2023-10-08T09:19:37;29.10;48.00
63047;DHT22;62025;39.238;9.126;2023-10-08T09:22:10;28.80;48.60
63047;DHT22;62025;39.238;9.126;2023-10-08T09:24:39;28.70;49.00
63047;DHT22;62025;39.238;9.126;2023-10-08T09:27:06;28.80;48.50
63047;DHT22;62025;39.238;9.126;2023-10-08T09:29:34;28.90;48.60
63047;DHT22;62025;39.238;9.126;2023-10-08T09:32:13;28.90;48.60
63047;DHT22;62025;39.238;9.126;2023-10-08T09:34:39;29.10;47.90
63047;DHT22;62025;39.238;9.126;2023-10-08T09:37:06;29.00;47.50
63047;DHT22;62025;39.238;9.126;2023-10-08T09:39:33;28.90;47.60
63047;DHT22;62025;39.238;9.126;2023-10-08T09:42:01;29.20;46.90
63047;DHT22;62025;39.238;9.126;2023-10-08T09:44:29;29.40;47.40
63047;DHT22;62025;39.238;9.126;2023-10-08T09:47:05;29.50;48.00
63047;DHT22;62025;39.238;9.126;2023-10-08T09:49:40;29.80;47.20
63047;DHT22;62025;39.238;9.126;2023-10-08T09:52:11;29.60;47.80
63047;DHT22;62025;39.238;9.126;2023-10-08T09:55:00;29.80;47.40
63047;DHT22;62025;39.238;9.126;2023-10-08T09:57:29;29.20;47.60
63047;DHT22;62025;39.238;9.126;2023-10-08T09:59:56;29.20;48.60
63047;DHT22;62025;39.238;9.126;2023-10-08T10:02:25;29.70;47.80
63047;DHT22;62025;39.238;9.126;2023-10-08T10:04:55;29.90;47.00
63047;DHT22;62025;39.238;9.126;2023-10-08T10:07:21;30.00;47.20
63047;DHT22;62025;39.238;9.126;2023-10-08T10:09:51;30.00;46.70
63047;DHT22;62025;39.238;9.126;2023-10-08T10:12:26;29.90;46.70
63047;DHT22;62025;39.238;9.126;2023-10-08T10:14:54;29.40;47.50
63047;DHT22;62025;39.238;9.126;2023-10-08T10:17:27;29.20;46.90
63047;DHT22;62025;39.238;9.126;2023-10-08T10:20:00;29.20;47.50
63047;DHT22;62025;39.238;9.126;2023-10-08T10:22:31;29.10;46.10
63047;DHT22;62025;39.238;9.126;2023-10-08T10:25:03;28.10;47.20
63047;DHT22;62025;39.238;9.126;2023-10-08T10:27:42;28.50;48.00
63047;DHT22;62025;39.238;9.126;2023-10-08T10:30:32;28.40;48.60
63047;DHT22;62025;39.238;9.126;2023-10-08T10:33:00;28.90;47.60
63047;DHT22;62025;39.238;9.126;2023-10-08T10:35:27;29.00;47.80
63047;DHT22;62025;39.238;9.126;2023-10-08T10:37:53;29.20;47.30
63047;DHT22;62025;39.238;9.126;2023-10-08T10:40:29;29.20;47.40
63047;DHT22;62025;39.238;9.126;2023-10-08T10:43:08;29.40;46.90
63047;DHT22;62025;39.238;9.126;2023-10-08T10:45:45;29.40;47.00
63047;DHT22;62025;39.238;9.126;2023-10-08T10:48:13;28.60;48.50
63047;DHT22;62025;39.238;9.126;2023-10-08T10:50:40;28.00;49.70
63047;DHT22;62025;39.238;9.126;2023-10-08T10:53:25;28.40;49.70
63047;DHT22;62025;39.238;9.126;2023-10-08T10:55:53;28.70;49.30
63047;DHT22;62025;39.238;9.126;2023-10-08T10:58:30;28.70;49.10
63047;DHT22;62025;39.238;9.126;2023-10-08T11:01:04;28.60;48.80
63047;DHT22;62025;39.238;9.126;2023-10-08T11:03:50;28.40;47.80
63047;DHT22;62025;39.238;9.126;2023-10-08T11:06:23;28.30;48.00
63047;DHT22;62025;39.238;9.126;2023-10-08T11:08:51;28.20;47.80
63047;DHT22;62025;39.238;9.126;2023-10-08T11:11:28;27.80;47.70
63047;DHT22;62025;39.238;9.126;2023-10-08T11:14:00;27.40;49.40
63047;DHT22;62025;39.238;9.126;2023-10-08T11:16:26;27.50;49.20
63047;DHT22;62025;39.238;9.126;2023-10-08T11:18:53;27.50;49.20
63047;DHT22;62025;39.238;9.126;2023-10-08T11:21:26;26.90;51.60
63047;DHT22;62025;39.238;9.126;2023-10-08T11:23:57;26.90;50.80
63047;DHT22;62025;39.238;9.126;2023-10-08T11:26:25;27.10;51.00
63047;DHT22;62025;39.238;9.126;2023-10-08T11:28:58;27.10;51.00
63047;DHT22;62025;39.238;9.126;2023-10-08T11:31:31;27.40;50.10
63047;DHT22;62025;39.238;9.126;2023-10-08T11:34:02;27.40;50.00
63047;DHT22;62025;39.238;9.126;2023-10-08T11:36:36;27.40;50.10
63047;DHT22;62025;39.238;9.126;2023-10-08T11:39:14;27.30;51.30
63047;DHT22;62025;39.238;9.126;2023-10-08T11:41:57;27.30;52.40
63047;DHT22;62025;39.238;9.126;2023-10-08T11:44:32;26.90;53.30
63047;DHT22;62025;39.238;9.126;2023-10-08T11:47:02;26.90;53.60
63047;DHT22;62025;39.238;9.126;2023-10-08T11:49:46;27.10;54.10
63047;DHT22;62025;39.238;9.126;2023-10-08T11:52:16;26.60;55.10
63047;DHT22;62025;39.238;9.126;2023-10-08T11:54:43;26.40;55.90
63047;DHT22;62025;39.238;9.126;2023-10-08T11:57:10;26.40;55.50
63047;DHT22;62025;39.238;9.126;2023-10-08T11:59:37;26.40;56.00
63047;DHT22;62025;39.238;9.126;2023-10-08T12:02:07;26.40;56.40
63047;DHT22;62025;39.238;9.126;2023-10-08T12:04:33;26.40;54.80
63047;DHT22;62025;39.238;9.126;2023-10-08T12:06:59;26.40;56.00
63047;DHT22;62025;39.238;9.126;2023-10-08T12:09:28;26.30;56.30
63047;DHT22;62025;39.238;9.126;2023-10-08T12:11:54;26.10;56.30
63047;DHT22;62025;39.238;9.126;2023-10-08T12:14:23;26.00;56.10
63047;DHT22;62025;39.238;9.126;2023-10-08T12:16:55;26.40;55.70
63047;DHT22;62025;39.238;9.126;2023-10-08T12:19:21;26.20;56.10
63047;DHT22;62025;39.238;9.126;2023-10-08T12:21:47;26.20;56.50
63047;DHT22;62025;39.238;9.126;2023-10-08T12:24:14;26.40;56.10
63047;DHT22;62025;39.238;9.126;2023-10-08T12:26:41;26.40;54.50
63047;DHT22;62025;39.238;9.126;2023-10-08T12:29:15;26.20;56.80
63047;DHT22;62025;39.238;9.126;2023-10-08T12:31:44;26.40;55.90
63047;DHT22;62025;39.238;9.126;2023-10-08T12:34:14;26.30;56.10
63047;DHT22;62025;39.238;9.126;2023-10-08T12:36:40;26.00;56.60
63047;DHT22;62025;39.238;9.126;2023-10-08T12:39:07;26.10;56.20
63047;DHT22;62025;39.238;9.126;2023-10-08T12:41:44;26.00;56.90
63047;DHT22;62025;39.238;9.126;2023-10-08T12:44:11;25.90;58.20
63047;DHT22;62025;39.238;9.126;2023-10-08T12:46:37;26.00;56.00
63047;DHT22;62025;39.238;9.126;2023-10-08T12:49:04;25.90;54.80
63047;DHT22;62025;39.238;9.126;2023-10-08T12:51:30;25.90;55.60
63047;DHT22;62025;39.238;9.126;2023-10-08T12:54:00;26.30;55.00
63047;DHT22;62025;39.238;9.126;2023-10-08T12:56:32;26.30;54.60
63047;DHT22;62025;39.238;9.126;2023-10-08T12:59:04;26.40;54.80
63047;DHT22;62025;39.238;9.126;2023-10-08T13:01:33;26.20;54.30
63047;DHT22;62025;39.238;9.126;2023-10-08T13:04:02;26.00;52.50
63047;DHT22;62025;39.238;9.126;2023-10-08T13:06:34;26.30;53.50
63047;DHT22;62025;39.238;9.126;2023-10-08T13:09:03;26.20;55.70
63047;DHT22;62025;39.238;9.126;2023-10-08T13:11:38;26.20;57.10
63047;DHT22;62025;39.238;9.126;2023-10-08T13:14:05;26.30;58.40
63047;DHT22;62025;39.238;9.126;2023-10-08T13:16:31;26.30;57.50
63047;DHT22;62025;39.238;9.126;2023-10-08T13:18:58;26.20;57.50
63047;DHT22;62025;39.238;9.126;2023-10-08T13:21:25;26.20;58.70
63047;DHT22;62025;39.238;9.126;2023-10-08T13:24:00;26.40;58.10
63047;DHT22;62025;39.238;9.126;2023-10-08T13:26:29;26.40;57.80
63047;DHT22;62025;39.238;9.126;2023-10-08T13:28:58;26.30;58.80
63047;DHT22;62025;39.238;9.126;2023-10-08T13:31:27;26.30;58.50
63047;DHT22;62025;39.238;9.126;2023-10-08T13:33:54;26.40;58.50
63047;DHT22;62025;39.238;9.126;2023-10-08T13:36:25;26.20;59.10
63047;DHT22;62025;39.238;9.126;2023-10-08T13:38:51;26.30;59.10
63047;DHT22;62025;39.238;9.126;2023-10-08T13:41:17;26.40;58.60
63047;DHT22;62025;39.238;9.126;2023-10-08T13:43:49;26.20;57.50
63047;DHT22;62025;39.238;9.126;2023-10-08T13:46:24;26.00;59.00
63047;DHT22;62025;39.238;9.126;2023-10-08T13:48:51;26.00;60.00
63047;DHT22;62025;39.238;9.126;2023-10-08T13:51:18;26.20;59.60
63047;DHT22;62025;39.238;9.126;2023-10-08T13:53:53;26.10;60.20
63047;DHT22;62025;39.238;9.126;2023-10-08T13:56:33;26.20;60.00
63047;DHT22;62025;39.238;9.126;2023-10-08T13:59:03;26.20;60.30
63047;DHT22;62025;39.238;9.126;2023-10-08T14:01:32;25.90;61.70
63047;DHT22;62025;39.238;9.126;2023-10-08T14:04:00;25.90;61.40
63047;DHT22;62025;39.238;9.126;2023-10-08T14:06:33;25.90;60.80
63047;DHT22;62025;39.238;9.126;2023-10-08T14:09:06;26.00;60.10
63047;DHT22;62025;39.238;9.126;2023-10-08T14:11:38;25.90;61.10
63047;DHT22;62025;39.238;9.126;2023-10-08T14:14:04;25.80;61.80
63047;DHT22;62025;39.238;9.126;2023-10-08T14:16:40;25.70;61.50
63047;DHT22;62025;39.238;9.126;2023-10-08T14:19:12;25.60;61.10
63047;DHT22;62025;39.238;9.126;2023-10-08T14:21:42;25.60;62.50
63047;DHT22;62025;39.238;9.126;2023-10-08T14:24:34;25.40;62.50
63047;DHT22;62025;39.238;9.126;2023-10-08T14:27:06;25.50;63.40
63047;DHT22;62025;39.238;9.126;2023-10-08T14:29:41;25.40;63.10
63047;DHT22;62025;39.238;9.126;2023-10-08T14:32:10;25.60;62.60
63047;DHT22;62025;39.238;9.126;2023-10-08T14:34:36;25.40;63.00
63047;DHT22;62025;39.238;9.126;2023-10-08T14:37:09;25.50;63.80
63047;DHT22;62025;39.238;9.126;2023-10-08T14:39:55;25.50;64.20
63047;DHT22;62025;39.238;9.126;2023-10-08T14:42:39;25.50;64.40
63047;DHT22;62025;39.238;9.126;2023-10-08T14:45:25;25.60;63.80
63047;DHT22;62025;39.238;9.126;2023-10-08T14:47:53;25.50;62.60
63047;DHT22;62025;39.238;9.126;2023-10-08T14:50:21;25.40;63.30
63047;DHT22;62025;39.238;9.126;2023-10-08T14:52:48;25.40;63.50
63047;DHT22;62025;39.238;9.126;2023-10-08T14:55:15;25.40;64.20
63047;DHT22;62025;39.238;9.126;2023-10-08T14:57:48;25.40;63.80
63047;DHT22;62025;39.238;9.126;2023-10-08T15:00:18;25.30;63.60
63047;DHT22;62025;39.238;9.126;2023-10-08T15:02:55;25.30;62.20
63047;DHT22;62025;39.238;9.126;2023-10-08T15:05:22;25.30;63.00
63047;DHT22;62025;39.238;9.126;2023-10-08T15:07:51;25.40;63.10
63047;DHT22;62025;39.238;9.126;2023-10-08T15:10:18;25.40;64.00
63047;DHT22;62025;39.238;9.126;2023-10-08T15:12:44;25.40;64.10
63047;DHT22;62025;39.238;9.126;2023-10-08T15:15:10;25.50;64.50
63047;DHT22;62025;39.238;9.126;2023-10-08T15:17:44;25.40;64.10
63047;DHT22;62025;39.238;9.126;2023-10-08T15:20:13;25.30;64.40
63047;DHT22;62025;39.238;9.126;2023-10-08T15:22:43;25.30;64.70
63047;DHT22;62025;39.238;9.126;2023-10-08T15:25:10;25.40;64.20
63047;DHT22;62025;39.238;9.126;2023-10-08T15:27:38;25.50;64.30
63047;DHT22;62025;39.238;9.126;2023-10-08T15:30:09;25.40;65.20
63047;DHT22;62025;39.238;9.126;2023-10-08T15:32:41;25.20;65.20
63047;DHT22;62025;39.238;9.126;2023-10-08T15:35:13;25.40;64.50
63047;DHT22;62025;39.238;9.126;2023-10-08T15:37:42;25.30;64.40
63047;DHT22;62025;39.238;9.126;2023-10-08T15:40:09;25.20;64.20
63047;DHT22;62025;39.238;9.126;2023-10-08T15:42:44;25.10;64.50
63047;DHT22;62025;39.238;9.126;2023-10-08T15:45:14;25.10;64.50
63047;DHT22;62025;39.238;9.126;2023-10-08T15:47:40;25.20;63.60
63047;DHT22;62025;39.238;9.126;2023-10-08T15:50:06;25.10;64.20
63047;DHT22;62025;39.238;9.126;2023-10-08T15:52:36;25.10;64.90
63047;DHT22;62025;39.238;9.126;2023-10-08T15:55:04;25.10;65.10
63047;DHT22;62025;39.238;9.126;2023-10-08T15:57:31;25.20;65.30
63047;DHT22;62025;39.238;9.126;2023-10-08T15:59:57;25.10;65.30
63047;DHT22;62025;39.238;9.126;2023-10-08T16:02:23;25.00;65.90